Pagrindinis puslapis
METAR-TAF:

METAR-TAF

Oro uostai :

Stokholmas, Švedija

platuma: 59-21N, ilguma: 017-57E, Aukštis: 14 m

Dabartinis oras

Ataskaita buvo paskelbta 38 minutes, ne 23:50 UTC
Vėjas 3 kt iš Pietvakarių
Temperatūra 13°C
Drėgmė 88%
Slėgis 1019 hPa
Matomumas 10 km arba daugiau

METAR: ESSB 022350Z AUTO 22003KT 9999 NCD 13/11 Q1019

Laikas: 02:28 (00:28 UTC)

Prognozė

Ataskaita buvo paskelbta 12 valandos ir 58 minutes, ne 11:30 UTC
Prognozė galioja nuo 02 metu 12 UTC su 02 metu 16 UTC
Vėjas 12 kt iš Vakarų/Pietvakarių
Matomumas 10 km arba daugiau
Su prošvaistėmis ne aukštis 2000 ft

TAF: ESSB 021130Z 0212/0216 25012KT 9999 BKN020

Orai ataskaitas ir orų prognozės (METAR, TAF).

turimą stotys yra geltonos ir raudonos taškus žemėlapyje.

Perkelti pele per norėdami pamatyti stoties vardą.

Tada spustelėkite, norėdami matyti oro stebėjimo ir prognozės.

Norėdami pakeisti žemėlapį: spustelėkite ant žalios mygtukų su juodo kryžiaus žemyn,; žalią mygtuką su brūkšneliu, jei norite nutolinti; arba žalių rodyklių gretimoms žemėlapius.


METAR-TAF: